sensor_id;sensor_type;location;lat;lon;timestamp;P1;durP1;ratioP1;P2;durP2;ratioP2
85054;SDS011;75391;48.300;16.352;2024-02-28T00:01:01;6.50;;;2.88;;
85054;SDS011;75391;48.300;16.352;2024-02-28T00:03:30;7.22;;;2.75;;
85054;SDS011;75391;48.300;16.352;2024-02-28T00:05:56;6.22;;;2.67;;
85054;SDS011;75391;48.300;16.352;2024-02-28T00:08:27;5.65;;;2.85;;
85054;SDS011;75391;48.300;16.352;2024-02-28T00:10:53;6.05;;;2.58;;
85054;SDS011;75391;48.300;16.352;2024-02-28T00:13:19;6.75;;;2.80;;
85054;SDS011;75391;48.300;16.352;2024-02-28T00:15:45;6.20;;;2.60;;
85054;SDS011;75391;48.300;16.352;2024-02-28T00:18:20;7.25;;;2.72;;
85054;SDS011;75391;48.300;16.352;2024-02-28T00:20:49;5.63;;;2.63;;
85054;SDS011;75391;48.300;16.352;2024-02-28T00:23:22;6.53;;;2.60;;
85054;SDS011;75391;48.300;16.352;2024-02-28T00:25:48;5.82;;;2.10;;
85054;SDS011;75391;48.300;16.352;2024-02-28T00:28:14;7.90;;;2.35;;
85054;SDS011;75391;48.300;16.352;2024-02-28T00:30:40;5.85;;;2.42;;
85054;SDS011;75391;48.300;16.352;2024-02-28T00:33:06;6.90;;;2.72;;
85054;SDS011;75391;48.300;16.352;2024-02-28T00:35:34;6.40;;;2.50;;
85054;SDS011;75391;48.300;16.352;2024-02-28T00:38:09;7.78;;;3.22;;
85054;SDS011;75391;48.300;16.352;2024-02-28T00:40:37;5.63;;;2.90;;
85054;SDS011;75391;48.300;16.352;2024-02-28T00:43:03;5.32;;;2.72;;
85054;SDS011;75391;48.300;16.352;2024-02-28T00:45:31;7.97;;;3.35;;
85054;SDS011;75391;48.300;16.352;2024-02-28T00:48:00;8.85;;;3.10;;
85054;SDS011;75391;48.300;16.352;2024-02-28T00:50:31;7.60;;;2.92;;
85054;SDS011;75391;48.300;16.352;2024-02-28T00:52:57;7.22;;;3.13;;
85054;SDS011;75391;48.300;16.352;2024-02-28T00:55:23;8.20;;;3.03;;
85054;SDS011;75391;48.300;16.352;2024-02-28T00:57:54;7.28;;;3.10;;
85054;SDS011;75391;48.300;16.352;2024-02-28T01:00:23;7.65;;;3.05;;
85054;SDS011;75391;48.300;16.352;2024-02-28T01:02:49;7.85;;;3.40;;
85054;SDS011;75391;48.300;16.352;2024-02-28T01:05:15;6.78;;;3.20;;
85054;SDS011;75391;48.300;16.352;2024-02-28T01:07:51;6.50;;;3.30;;
85054;SDS011;75391;48.300;16.352;2024-02-28T01:10:26;8.20;;;3.40;;
85054;SDS011;75391;48.300;16.352;2024-02-28T01:12:54;6.72;;;3.08;;
85054;SDS011;75391;48.300;16.352;2024-02-28T01:15:24;7.28;;;3.00;;
85054;SDS011;75391;48.300;16.352;2024-02-28T01:17:53;10.00;;;3.10;;
85054;SDS011;75391;48.300;16.352;2024-02-28T01:20:18;6.88;;;2.90;;
85054;SDS011;75391;48.300;16.352;2024-02-28T01:22:47;6.20;;;2.58;;
85054;SDS011;75391;48.300;16.352;2024-02-28T01:25:16;7.05;;;3.00;;
85054;SDS011;75391;48.300;16.352;2024-02-28T01:27:42;9.07;;;2.90;;
85054;SDS011;75391;48.300;16.352;2024-02-28T01:30:16;9.57;;;3.05;;
85054;SDS011;75391;48.300;16.352;2024-02-28T01:32:45;6.72;;;3.00;;
85054;SDS011;75391;48.300;16.352;2024-02-28T01:35:10;6.85;;;2.75;;
85054;SDS011;75391;48.300;16.352;2024-02-28T01:37:36;6.70;;;2.80;;
85054;SDS011;75391;48.300;16.352;2024-02-28T01:40:05;6.57;;;2.72;;
85054;SDS011;75391;48.300;16.352;2024-02-28T01:42:37;7.05;;;3.58;;
85054;SDS011;75391;48.300;16.352;2024-02-28T01:45:13;6.90;;;3.38;;
85054;SDS011;75391;48.300;16.352;2024-02-28T01:47:40;8.98;;;3.30;;
85054;SDS011;75391;48.300;16.352;2024-02-28T01:50:08;9.60;;;3.40;;
85054;SDS011;75391;48.300;16.352;2024-02-28T01:52:38;8.85;;;3.50;;
85054;SDS011;75391;48.300;16.352;2024-02-28T01:55:06;9.20;;;3.35;;
85054;SDS011;75391;48.300;16.352;2024-02-28T01:57:33;7.97;;;3.20;;
85054;SDS011;75391;48.300;16.352;2024-02-28T01:59:59;11.68;;;3.40;;
85054;SDS011;75391;48.300;16.352;2024-02-28T02:02:25;7.78;;;3.42;;
85054;SDS011;75391;48.300;16.352;2024-02-28T02:04:51;7.80;;;3.22;;
85054;SDS011;75391;48.300;16.352;2024-02-28T02:07:18;8.43;;;3.15;;
85054;SDS011;75391;48.300;16.352;2024-02-28T02:09:45;8.70;;;3.45;;
85054;SDS011;75391;48.300;16.352;2024-02-28T02:12:18;5.95;;;2.75;;
85054;SDS011;75391;48.300;16.352;2024-02-28T02:14:53;6.32;;;2.88;;
85054;SDS011;75391;48.300;16.352;2024-02-28T02:17:19;10.35;;;3.00;;
85054;SDS011;75391;48.300;16.352;2024-02-28T02:19:45;9.82;;;3.05;;
85054;SDS011;75391;48.300;16.352;2024-02-28T02:22:14;6.85;;;2.92;;
85054;SDS011;75391;48.300;16.352;2024-02-28T02:24:40;7.82;;;3.15;;
85054;SDS011;75391;48.300;16.352;2024-02-28T02:27:07;6.50;;;3.10;;
85054;SDS011;75391;48.300;16.352;2024-02-28T02:29:33;7.38;;;3.22;;
85054;SDS011;75391;48.300;16.352;2024-02-28T02:32:01;8.00;;;3.50;;
85054;SDS011;75391;48.300;16.352;2024-02-28T02:34:30;7.03;;;3.47;;
85054;SDS011;75391;48.300;16.352;2024-02-28T02:36:58;10.13;;;3.90;;
85054;SDS011;75391;48.300;16.352;2024-02-28T02:39:24;11.38;;;4.47;;
85054;SDS011;75391;48.300;16.352;2024-02-28T02:42:10;9.18;;;4.45;;
85054;SDS011;75391;48.300;16.352;2024-02-28T02:44:36;9.80;;;4.35;;
85054;SDS011;75391;48.300;16.352;2024-02-28T02:47:02;10.07;;;4.57;;
85054;SDS011;75391;48.300;16.352;2024-02-28T02:49:28;13.18;;;5.20;;
85054;SDS011;75391;48.300;16.352;2024-02-28T02:51:53;11.35;;;4.95;;
85054;SDS011;75391;48.300;16.352;2024-02-28T02:54:22;13.30;;;5.90;;
85054;SDS011;75391;48.300;16.352;2024-02-28T02:59:16;10.80;;;5.03;;
85054;SDS011;75391;48.300;16.352;2024-02-28T03:01:42;14.05;;;6.20;;
85054;SDS011;75391;48.300;16.352;2024-02-28T03:04:08;17.25;;;6.40;;
85054;SDS011;75391;48.300;16.352;2024-02-28T03:06:33;12.52;;;6.32;;
85054;SDS011;75391;48.300;16.352;2024-02-28T03:09:07;13.77;;;6.18;;
85054;SDS011;75391;48.300;16.352;2024-02-28T03:11:33;15.52;;;6.50;;
85054;SDS011;75391;48.300;16.352;2024-02-28T03:13:59;14.88;;;6.55;;
85054;SDS011;75391;48.300;16.352;2024-02-28T03:18:56;14.18;;;5.93;;
85054;SDS011;75391;48.300;16.352;2024-02-28T03:21:22;12.90;;;5.93;;
85054;SDS011;75391;48.300;16.352;2024-02-28T03:23:52;16.58;;;6.80;;
85054;SDS011;75391;48.300;16.352;2024-02-28T03:26:21;15.38;;;6.70;;
85054;SDS011;75391;48.300;16.352;2024-02-28T03:28:46;13.40;;;6.28;;
85054;SDS011;75391;48.300;16.352;2024-02-28T03:31:15;13.95;;;6.38;;
85054;SDS011;75391;48.300;16.352;2024-02-28T03:33:41;15.25;;;6.97;;
85054;SDS011;75391;48.300;16.352;2024-02-28T03:36:07;14.70;;;6.60;;
85054;SDS011;75391;48.300;16.352;2024-02-28T03:38:32;15.55;;;6.78;;
85054;SDS011;75391;48.300;16.352;2024-02-28T03:40:58;14.40;;;6.95;;
85054;SDS011;75391;48.300;16.352;2024-02-28T03:45:59;15.73;;;7.05;;
85054;SDS011;75391;48.300;16.352;2024-02-28T03:48:31;13.43;;;6.57;;
85054;SDS011;75391;48.300;16.352;2024-02-28T03:50:57;14.50;;;6.75;;
85054;SDS011;75391;48.300;16.352;2024-02-28T03:53:23;13.57;;;7.03;;
85054;SDS011;75391;48.300;16.352;2024-02-28T03:55:49;15.93;;;6.72;;
85054;SDS011;75391;48.300;16.352;2024-02-28T04:01:01;15.48;;;7.88;;
85054;SDS011;75391;48.300;16.352;2024-02-28T04:03:30;13.73;;;6.82;;
85054;SDS011;75391;48.300;16.352;2024-02-28T04:05:57;14.75;;;7.60;;
85054;SDS011;75391;48.300;16.352;2024-02-28T04:08:23;13.60;;;7.32;;
85054;SDS011;75391;48.300;16.352;2024-02-28T04:10:51;15.88;;;8.02;;
85054;SDS011;75391;48.300;16.352;2024-02-28T04:13:20;15.02;;;7.70;;
85054;SDS011;75391;48.300;16.352;2024-02-28T04:15:46;15.50;;;7.93;;
85054;SDS011;75391;48.300;16.352;2024-02-28T04:18:12;15.35;;;7.72;;
85054;SDS011;75391;48.300;16.352;2024-02-28T04:20:38;17.60;;;8.75;;
85054;SDS011;75391;48.300;16.352;2024-02-28T04:23:19;16.60;;;8.20;;
85054;SDS011;75391;48.300;16.352;2024-02-28T04:25:45;16.02;;;7.85;;
85054;SDS011;75391;48.300;16.352;2024-02-28T04:28:13;15.98;;;8.27;;
85054;SDS011;75391;48.300;16.352;2024-02-28T04:30:39;16.08;;;7.70;;
85054;SDS011;75391;48.300;16.352;2024-02-28T04:33:05;18.90;;;7.95;;
85054;SDS011;75391;48.300;16.352;2024-02-28T04:35:33;17.77;;;8.50;;
85054;SDS011;75391;48.300;16.352;2024-02-28T04:38:00;17.52;;;8.57;;
85054;SDS011;75391;48.300;16.352;2024-02-28T04:40:26;16.77;;;8.27;;
85054;SDS011;75391;48.300;16.352;2024-02-28T04:43:01;17.75;;;8.82;;
85054;SDS011;75391;48.300;16.352;2024-02-28T04:45:36;17.73;;;8.70;;
85054;SDS011;75391;48.300;16.352;2024-02-28T04:48:08;19.80;;;8.88;;
85054;SDS011;75391;48.300;16.352;2024-02-28T04:50:39;16.55;;;8.75;;
85054;SDS011;75391;48.300;16.352;2024-02-28T04:53:05;17.80;;;9.32;;
85054;SDS011;75391;48.300;16.352;2024-02-28T04:55:31;20.00;;;9.75;;
85054;SDS011;75391;48.300;16.352;2024-02-28T04:58:06;22.13;;;10.30;;
85054;SDS011;75391;48.300;16.352;2024-02-28T05:00:32;19.05;;;9.30;;
85054;SDS011;75391;48.300;16.352;2024-02-28T05:02:58;20.35;;;9.35;;
85054;SDS011;75391;48.300;16.352;2024-02-28T05:05:24;20.17;;;9.95;;
85054;SDS011;75391;48.300;16.352;2024-02-28T05:07:50;21.02;;;10.18;;
85054;SDS011;75391;48.300;16.352;2024-02-28T05:10:21;20.73;;;9.48;;
85054;SDS011;75391;48.300;16.352;2024-02-28T05:13:39;17.58;;;9.07;;
85054;SDS011;75391;48.300;16.352;2024-02-28T05:16:11;18.10;;;9.15;;
85054;SDS011;75391;48.300;16.352;2024-02-28T05:21:30;20.90;;;10.25;;
85054;SDS011;75391;48.300;16.352;2024-02-28T05:23:56;20.42;;;10.07;;
85054;SDS011;75391;48.300;16.352;2024-02-28T05:26:21;23.45;;;10.43;;
85054;SDS011;75391;48.300;16.352;2024-02-28T05:28:47;21.10;;;10.60;;
85054;SDS011;75391;48.300;16.352;2024-02-28T05:31:26;19.25;;;9.88;;
85054;SDS011;75391;48.300;16.352;2024-02-28T05:33:56;21.88;;;10.23;;
85054;SDS011;75391;48.300;16.352;2024-02-28T05:36:23;19.73;;;9.55;;
85054;SDS011;75391;48.300;16.352;2024-02-28T05:38:51;19.95;;;9.93;;
85054;SDS011;75391;48.300;16.352;2024-02-28T05:41:27;20.95;;;10.10;;
85054;SDS011;75391;48.300;16.352;2024-02-28T05:43:55;22.70;;;10.57;;
85054;SDS011;75391;48.300;16.352;2024-02-28T05:46:21;21.40;;;10.88;;
85054;SDS011;75391;48.300;16.352;2024-02-28T05:48:47;22.08;;;10.77;;
85054;SDS011;75391;48.300;16.352;2024-02-28T05:51:14;20.95;;;10.23;;
85054;SDS011;75391;48.300;16.352;2024-02-28T05:53:41;23.88;;;11.27;;
85054;SDS011;75391;48.300;16.352;2024-02-28T05:56:23;21.02;;;10.63;;
85054;SDS011;75391;48.300;16.352;2024-02-28T05:58:53;22.13;;;10.32;;
85054;SDS011;75391;48.300;16.352;2024-02-28T06:01:19;21.30;;;10.15;;
85054;SDS011;75391;48.300;16.352;2024-02-28T06:03:45;21.52;;;10.43;;
85054;SDS011;75391;48.300;16.352;2024-02-28T06:06:12;22.90;;;11.32;;
85054;SDS011;75391;48.300;16.352;2024-02-28T06:08:41;23.00;;;10.93;;
85054;SDS011;75391;48.300;16.352;2024-02-28T06:11:10;25.08;;;11.95;;
85054;SDS011;75391;48.300;16.352;2024-02-28T06:13:45;23.63;;;11.02;;
85054;SDS011;75391;48.300;16.352;2024-02-28T06:16:18;24.35;;;11.40;;
85054;SDS011;75391;48.300;16.352;2024-02-28T06:18:47;22.63;;;10.90;;
85054;SDS011;75391;48.300;16.352;2024-02-28T06:21:16;21.48;;;10.63;;
85054;SDS011;75391;48.300;16.352;2024-02-28T06:23:44;22.10;;;11.65;;
85054;SDS011;75391;48.300;16.352;2024-02-28T06:26:10;24.65;;;11.88;;
85054;SDS011;75391;48.300;16.352;2024-02-28T06:28:36;21.15;;;10.65;;
85054;SDS011;75391;48.300;16.352;2024-02-28T06:31:01;25.13;;;10.85;;
85054;SDS011;75391;48.300;16.352;2024-02-28T06:33:27;22.65;;;11.50;;
85054;SDS011;75391;48.300;16.352;2024-02-28T06:36:02;24.35;;;10.73;;
85054;SDS011;75391;48.300;16.352;2024-02-28T06:38:28;23.38;;;11.27;;
85054;SDS011;75391;48.300;16.352;2024-02-28T06:40:54;21.27;;;10.35;;
85054;SDS011;75391;48.300;16.352;2024-02-28T06:43:22;22.85;;;11.23;;
85054;SDS011;75391;48.300;16.352;2024-02-28T06:45:48;25.70;;;11.55;;
85054;SDS011;75391;48.300;16.352;2024-02-28T06:48:14;21.92;;;11.15;;
85054;SDS011;75391;48.300;16.352;2024-02-28T06:50:40;21.23;;;10.88;;
85054;SDS011;75391;48.300;16.352;2024-02-28T06:53:06;24.38;;;11.35;;
85054;SDS011;75391;48.300;16.352;2024-02-28T06:55:39;22.50;;;11.23;;
85054;SDS011;75391;48.300;16.352;2024-02-28T06:58:08;25.13;;;11.88;;
85054;SDS011;75391;48.300;16.352;2024-02-28T07:00:34;23.90;;;12.13;;
85054;SDS011;75391;48.300;16.352;2024-02-28T07:03:00;22.40;;;11.15;;
85054;SDS011;75391;48.300;16.352;2024-02-28T07:05:26;24.35;;;11.10;;
85054;SDS011;75391;48.300;16.352;2024-02-28T07:07:59;23.27;;;11.90;;
85054;SDS011;75391;48.300;16.352;2024-02-28T07:10:28;26.80;;;12.55;;
85054;SDS011;75391;48.300;16.352;2024-02-28T07:15:23;22.38;;;10.52;;
85054;SDS011;75391;48.300;16.352;2024-02-28T07:17:49;21.88;;;10.80;;
85054;SDS011;75391;48.300;16.352;2024-02-28T07:20:20;22.52;;;11.25;;
85054;SDS011;75391;48.300;16.352;2024-02-28T07:22:46;24.70;;;11.73;;
85054;SDS011;75391;48.300;16.352;2024-02-28T07:25:15;23.25;;;10.82;;
85054;SDS011;75391;48.300;16.352;2024-02-28T07:27:45;26.38;;;11.63;;
85054;SDS011;75391;48.300;16.352;2024-02-28T07:30:11;24.38;;;11.32;;
85054;SDS011;75391;48.300;16.352;2024-02-28T07:32:38;25.23;;;12.35;;
85054;SDS011;75391;48.300;16.352;2024-02-28T07:35:07;26.77;;;12.18;;
85054;SDS011;75391;48.300;16.352;2024-02-28T07:37:38;23.13;;;11.50;;
85054;SDS011;75391;48.300;16.352;2024-02-28T07:40:04;26.98;;;12.80;;
85054;SDS011;75391;48.300;16.352;2024-02-28T07:42:34;25.35;;;11.15;;
85054;SDS011;75391;48.300;16.352;2024-02-28T07:45:02;25.23;;;11.93;;
85054;SDS011;75391;48.300;16.352;2024-02-28T07:47:31;27.17;;;12.32;;
85054;SDS011;75391;48.300;16.352;2024-02-28T07:50:08;24.23;;;11.43;;
85054;SDS011;75391;48.300;16.352;2024-02-28T07:52:36;25.98;;;11.68;;
85054;SDS011;75391;48.300;16.352;2024-02-28T07:55:01;25.23;;;12.90;;
85054;SDS011;75391;48.300;16.352;2024-02-28T07:57:28;22.52;;;10.68;;
85054;SDS011;75391;48.300;16.352;2024-02-28T07:59:56;25.30;;;11.50;;
85054;SDS011;75391;48.300;16.352;2024-02-28T08:02:22;25.98;;;12.10;;
85054;SDS011;75391;48.300;16.352;2024-02-28T08:04:51;27.15;;;11.90;;
85054;SDS011;75391;48.300;16.352;2024-02-28T08:07:19;23.02;;;11.20;;
85054;SDS011;75391;48.300;16.352;2024-02-28T08:09:45;25.52;;;12.10;;
85054;SDS011;75391;48.300;16.352;2024-02-28T08:12:13;23.25;;;11.27;;
85054;SDS011;75391;48.300;16.352;2024-02-28T08:14:39;26.90;;;11.20;;
85054;SDS011;75391;48.300;16.352;2024-02-28T08:17:19;25.40;;;11.75;;
85054;SDS011;75391;48.300;16.352;2024-02-28T08:19:45;24.67;;;11.15;;
85054;SDS011;75391;48.300;16.352;2024-02-28T08:22:17;24.88;;;11.40;;
85054;SDS011;75391;48.300;16.352;2024-02-28T08:27:11;26.75;;;12.55;;
85054;SDS011;75391;48.300;16.352;2024-02-28T08:29:50;28.35;;;13.15;;
85054;SDS011;75391;48.300;16.352;2024-02-28T08:32:28;31.65;;;13.25;;
85054;SDS011;75391;48.300;16.352;2024-02-28T08:34:54;29.42;;;13.18;;
85054;SDS011;75391;48.300;16.352;2024-02-28T08:37:22;33.13;;;13.50;;
85054;SDS011;75391;48.300;16.352;2024-02-28T08:39:51;31.27;;;12.82;;
85054;SDS011;75391;48.300;16.352;2024-02-28T08:42:17;31.40;;;13.73;;
85054;SDS011;75391;48.300;16.352;2024-02-28T08:44:48;32.15;;;14.55;;
85054;SDS011;75391;48.300;16.352;2024-02-28T08:47:22;33.08;;;14.18;;
85054;SDS011;75391;48.300;16.352;2024-02-28T08:49:49;31.92;;;13.82;;
85054;SDS011;75391;48.300;16.352;2024-02-28T08:52:15;30.65;;;13.82;;
85054;SDS011;75391;48.300;16.352;2024-02-28T08:54:44;30.58;;;13.48;;
85054;SDS011;75391;48.300;16.352;2024-02-28T08:57:10;26.52;;;12.00;;
85054;SDS011;75391;48.300;16.352;2024-02-28T08:59:39;29.48;;;12.75;;
85054;SDS011;75391;48.300;16.352;2024-02-28T09:02:05;29.15;;;12.93;;
85054;SDS011;75391;48.300;16.352;2024-02-28T09:04:36;26.83;;;12.15;;
85054;SDS011;75391;48.300;16.352;2024-02-28T09:07:02;27.27;;;11.65;;
85054;SDS011;75391;48.300;16.352;2024-02-28T09:09:39;25.90;;;11.75;;
85054;SDS011;75391;48.300;16.352;2024-02-28T09:12:09;28.00;;;12.20;;
85054;SDS011;75391;48.300;16.352;2024-02-28T09:14:35;25.70;;;12.13;;
85054;SDS011;75391;48.300;16.352;2024-02-28T09:17:01;28.70;;;12.80;;
85054;SDS011;75391;48.300;16.352;2024-02-28T09:19:27;27.30;;;12.15;;
85054;SDS011;75391;48.300;16.352;2024-02-28T09:21:53;29.20;;;12.30;;
85054;SDS011;75391;48.300;16.352;2024-02-28T09:24:25;26.52;;;12.00;;
85054;SDS011;75391;48.300;16.352;2024-02-28T09:26:56;29.73;;;12.90;;
85054;SDS011;75391;48.300;16.352;2024-02-28T09:29:28;27.55;;;12.63;;
85054;SDS011;75391;48.300;16.352;2024-02-28T09:31:54;27.98;;;12.85;;
85054;SDS011;75391;48.300;16.352;2024-02-28T09:34:19;29.70;;;12.05;;
85054;SDS011;75391;48.300;16.352;2024-02-28T09:36:49;27.13;;;13.02;;
85054;SDS011;75391;48.300;16.352;2024-02-28T09:39:15;30.20;;;13.30;;
85054;SDS011;75391;48.300;16.352;2024-02-28T09:41:52;29.75;;;12.75;;
85054;SDS011;75391;48.300;16.352;2024-02-28T09:44:18;31.10;;;12.93;;
85054;SDS011;75391;48.300;16.352;2024-02-28T09:46:45;26.15;;;12.73;;
85054;SDS011;75391;48.300;16.352;2024-02-28T09:49:11;35.53;;;13.70;;
85054;SDS011;75391;48.300;16.352;2024-02-28T09:51:40;29.65;;;12.95;;
85054;SDS011;75391;48.300;16.352;2024-02-28T09:54:12;27.20;;;12.88;;
85054;SDS011;75391;48.300;16.352;2024-02-28T09:56:38;27.95;;;13.27;;
85054;SDS011;75391;48.300;16.352;2024-02-28T09:59:03;26.60;;;12.93;;
85054;SDS011;75391;48.300;16.352;2024-02-28T10:01:30;27.63;;;12.40;;
85054;SDS011;75391;48.300;16.352;2024-02-28T10:04:02;26.83;;;12.50;;
85054;SDS011;75391;48.300;16.352;2024-02-28T10:06:28;26.33;;;11.57;;
85054;SDS011;75391;48.300;16.352;2024-02-28T10:09:26;26.48;;;11.93;;
85054;SDS011;75391;48.300;16.352;2024-02-28T10:11:52;28.17;;;12.55;;
85054;SDS011;75391;48.300;16.352;2024-02-28T10:14:23;26.13;;;12.65;;
85054;SDS011;75391;48.300;16.352;2024-02-28T10:16:49;28.13;;;11.85;;
85054;SDS011;75391;48.300;16.352;2024-02-28T10:19:18;25.98;;;11.65;;
85054;SDS011;75391;48.300;16.352;2024-02-28T10:21:47;23.88;;;10.88;;
85054;SDS011;75391;48.300;16.352;2024-02-28T10:24:16;27.83;;;12.15;;
85054;SDS011;75391;48.300;16.352;2024-02-28T10:26:54;26.63;;;11.55;;
85054;SDS011;75391;48.300;16.352;2024-02-28T10:29:23;24.23;;;11.45;;
85054;SDS011;75391;48.300;16.352;2024-02-28T10:31:53;25.75;;;10.95;;
85054;SDS011;75391;48.300;16.352;2024-02-28T10:34:20;25.27;;;11.13;;
85054;SDS011;75391;48.300;16.352;2024-02-28T10:36:46;24.30;;;10.98;;
85054;SDS011;75391;48.300;16.352;2024-02-28T10:39:12;24.83;;;10.73;;
85054;SDS011;75391;48.300;16.352;2024-02-28T10:41:39;26.75;;;10.98;;
85054;SDS011;75391;48.300;16.352;2024-02-28T10:44:11;24.20;;;10.57;;
85054;SDS011;75391;48.300;16.352;2024-02-28T10:46:38;23.63;;;10.20;;
85054;SDS011;75391;48.300;16.352;2024-02-28T10:49:11;22.92;;;9.93;;
85054;SDS011;75391;48.300;16.352;2024-02-28T10:51:40;22.60;;;10.15;;
85054;SDS011;75391;48.300;16.352;2024-02-28T10:54:14;22.85;;;10.23;;
85054;SDS011;75391;48.300;16.352;2024-02-28T10:56:59;26.27;;;10.55;;
85054;SDS011;75391;48.300;16.352;2024-02-28T10:59:59;22.48;;;9.95;;
85054;SDS011;75391;48.300;16.352;2024-02-28T11:02:25;24.55;;;10.38;;
85054;SDS011;75391;48.300;16.352;2024-02-28T11:04:58;23.27;;;10.43;;
85054;SDS011;75391;48.300;16.352;2024-02-28T11:07:26;22.67;;;9.88;;
85054;SDS011;75391;48.300;16.352;2024-02-28T11:09:54;24.08;;;10.70;;
85054;SDS011;75391;48.300;16.352;2024-02-28T11:12:29;22.80;;;10.07;;
85054;SDS011;75391;48.300;16.352;2024-02-28T11:14:55;21.20;;;9.55;;
85054;SDS011;75391;48.300;16.352;2024-02-28T11:17:29;22.92;;;9.57;;
85054;SDS011;75391;48.300;16.352;2024-02-28T11:20:10;23.42;;;9.80;;
85054;SDS011;75391;48.300;16.352;2024-02-28T11:22:37;19.70;;;9.60;;
85054;SDS011;75391;48.300;16.352;2024-02-28T11:25:07;24.48;;;9.75;;
85054;SDS011;75391;48.300;16.352;2024-02-28T11:27:48;20.55;;;9.10;;
85054;SDS011;75391;48.300;16.352;2024-02-28T11:30:14;21.50;;;9.93;;
85054;SDS011;75391;48.300;16.352;2024-02-28T11:32:44;23.33;;;10.00;;
85054;SDS011;75391;48.300;16.352;2024-02-28T11:35:22;21.60;;;9.10;;
85054;SDS011;75391;48.300;16.352;2024-02-28T11:37:54;22.05;;;10.65;;
85054;SDS011;75391;48.300;16.352;2024-02-28T11:40:26;22.13;;;10.20;;
85054;SDS011;75391;48.300;16.352;2024-02-28T11:43:00;22.00;;;9.70;;
85054;SDS011;75391;48.300;16.352;2024-02-28T11:45:29;24.52;;;10.38;;
85054;SDS011;75391;48.300;16.352;2024-02-28T11:48:07;22.88;;;10.15;;
85054;SDS011;75391;48.300;16.352;2024-02-28T11:50:45;22.65;;;10.23;;
85054;SDS011;75391;48.300;16.352;2024-02-28T11:53:12;21.88;;;9.90;;
85054;SDS011;75391;48.300;16.352;2024-02-28T11:55:42;23.45;;;10.32;;
85054;SDS011;75391;48.300;16.352;2024-02-28T11:58:08;22.00;;;10.50;;
85054;SDS011;75391;48.300;16.352;2024-02-28T12:00:47;19.38;;;9.77;;
85054;SDS011;75391;48.300;16.352;2024-02-28T12:03:20;22.60;;;10.50;;
85054;SDS011;75391;48.300;16.352;2024-02-28T12:05:46;21.73;;;10.38;;
85054;SDS011;75391;48.300;16.352;2024-02-28T12:08:12;22.17;;;10.10;;
85054;SDS011;75391;48.300;16.352;2024-02-28T12:10:51;23.75;;;11.15;;
85054;SDS011;75391;48.300;16.352;2024-02-28T12:13:17;21.50;;;10.68;;
85054;SDS011;75391;48.300;16.352;2024-02-28T12:15:43;22.80;;;10.52;;
85054;SDS011;75391;48.300;16.352;2024-02-28T12:18:16;23.38;;;10.77;;
85054;SDS011;75391;48.300;16.352;2024-02-28T12:20:45;22.35;;;10.15;;
85054;SDS011;75391;48.300;16.352;2024-02-28T12:23:10;21.45;;;11.25;;
85054;SDS011;75391;48.300;16.352;2024-02-28T12:25:36;20.52;;;9.90;;
85054;SDS011;75391;48.300;16.352;2024-02-28T12:28:05;21.48;;;10.18;;
85054;SDS011;75391;48.300;16.352;2024-02-28T12:30:31;20.65;;;9.85;;
85054;SDS011;75391;48.300;16.352;2024-02-28T12:33:04;21.25;;;10.20;;
85054;SDS011;75391;48.300;16.352;2024-02-28T12:35:45;20.30;;;9.45;;
85054;SDS011;75391;48.300;16.352;2024-02-28T12:38:19;20.95;;;9.52;;
85054;SDS011;75391;48.300;16.352;2024-02-28T12:40:45;21.90;;;9.63;;
85054;SDS011;75391;48.300;16.352;2024-02-28T12:43:11;20.98;;;8.90;;
85054;SDS011;75391;48.300;16.352;2024-02-28T12:45:37;20.17;;;8.90;;
85054;SDS011;75391;48.300;16.352;2024-02-28T12:48:04;18.85;;;9.02;;
85054;SDS011;75391;48.300;16.352;2024-02-28T12:50:30;19.27;;;8.98;;
85054;SDS011;75391;48.300;16.352;2024-02-28T12:52:59;19.48;;;8.68;;
85054;SDS011;75391;48.300;16.352;2024-02-28T12:55:24;22.73;;;9.85;;
85054;SDS011;75391;48.300;16.352;2024-02-28T12:58:18;19.38;;;9.27;;
85054;SDS011;75391;48.300;16.352;2024-02-28T13:01:02;19.08;;;8.13;;
85054;SDS011;75391;48.300;16.352;2024-02-28T13:03:34;20.52;;;8.75;;
85054;SDS011;75391;48.300;16.352;2024-02-28T13:06:00;19.63;;;8.77;;
85054;SDS011;75391;48.300;16.352;2024-02-28T13:10:57;22.17;;;9.23;;
85054;SDS011;75391;48.300;16.352;2024-02-28T13:13:28;21.90;;;8.95;;
85054;SDS011;75391;48.300;16.352;2024-02-28T13:15:57;18.55;;;8.27;;
85054;SDS011;75391;48.300;16.352;2024-02-28T13:18:42;20.90;;;8.70;;
85054;SDS011;75391;48.300;16.352;2024-02-28T13:21:15;19.02;;;8.55;;
85054;SDS011;75391;48.300;16.352;2024-02-28T13:23:47;20.45;;;9.05;;
85054;SDS011;75391;48.300;16.352;2024-02-28T13:26:20;17.70;;;8.52;;
85054;SDS011;75391;48.300;16.352;2024-02-28T13:28:49;18.10;;;8.00;;
85054;SDS011;75391;48.300;16.352;2024-02-28T13:31:19;18.33;;;7.68;;
85054;SDS011;75391;48.300;16.352;2024-02-28T13:33:46;19.27;;;8.43;;
85054;SDS011;75391;48.300;16.352;2024-02-28T13:36:11;20.83;;;8.18;;
85054;SDS011;75391;48.300;16.352;2024-02-28T13:38:44;17.98;;;8.40;;
85054;SDS011;75391;48.300;16.352;2024-02-28T13:41:15;19.90;;;8.27;;
85054;SDS011;75391;48.300;16.352;2024-02-28T13:43:41;18.40;;;8.15;;
85054;SDS011;75391;48.300;16.352;2024-02-28T13:46:09;21.13;;;8.90;;
85054;SDS011;75391;48.300;16.352;2024-02-28T13:48:37;21.02;;;8.50;;
85054;SDS011;75391;48.300;16.352;2024-02-28T13:51:13;21.80;;;9.10;;
85054;SDS011;75391;48.300;16.352;2024-02-28T13:53:40;23.33;;;9.30;;
85054;SDS011;75391;48.300;16.352;2024-02-28T13:56:06;23.17;;;9.02;;
85054;SDS011;75391;48.300;16.352;2024-02-28T13:58:33;20.98;;;8.95;;
85054;SDS011;75391;48.300;16.352;2024-02-28T14:01:05;23.38;;;8.95;;
85054;SDS011;75391;48.300;16.352;2024-02-28T14:03:34;22.23;;;8.65;;
85054;SDS011;75391;48.300;16.352;2024-02-28T14:05:59;21.83;;;8.65;;
85054;SDS011;75391;48.300;16.352;2024-02-28T14:08:28;22.33;;;8.85;;
85054;SDS011;75391;48.300;16.352;2024-02-28T14:10:54;22.95;;;10.05;;
85054;SDS011;75391;48.300;16.352;2024-02-28T14:13:28;23.95;;;9.30;;
85054;SDS011;75391;48.300;16.352;2024-02-28T14:15:54;24.35;;;9.07;;
85054;SDS011;75391;48.300;16.352;2024-02-28T14:18:23;25.52;;;10.02;;
85054;SDS011;75391;48.300;16.352;2024-02-28T14:20:58;21.60;;;9.15;;
85054;SDS011;75391;48.300;16.352;2024-02-28T14:23:34;22.67;;;9.32;;
85054;SDS011;75391;48.300;16.352;2024-02-28T14:26:00;22.65;;;9.80;;
85054;SDS011;75391;48.300;16.352;2024-02-28T14:30:57;24.27;;;9.95;;
85054;SDS011;75391;48.300;16.352;2024-02-28T14:33:30;24.52;;;9.88;;
85054;SDS011;75391;48.300;16.352;2024-02-28T14:35:57;23.98;;;9.38;;
85054;SDS011;75391;48.300;16.352;2024-02-28T14:38:24;25.08;;;9.57;;
85054;SDS011;75391;48.300;16.352;2024-02-28T14:40:55;20.77;;;8.38;;
85054;SDS011;75391;48.300;16.352;2024-02-28T14:43:44;25.48;;;10.15;;
85054;SDS011;75391;48.300;16.352;2024-02-28T14:46:16;21.48;;;8.85;;
85054;SDS011;75391;48.300;16.352;2024-02-28T14:48:44;23.58;;;9.27;;
85054;SDS011;75391;48.300;16.352;2024-02-28T14:51:10;21.40;;;8.95;;
85054;SDS011;75391;48.300;16.352;2024-02-28T14:53:39;24.90;;;9.35;;